sensor_id;sensor_type;location;lat;lon;timestamp;temperature;humidity
65460;DHT22;52058;49.822;6.754;2023-03-31T00:01:51;10.26;99.99
65460;DHT22;52058;49.822;6.754;2023-03-31T00:04:19;10.32;99.99
65460;DHT22;52058;49.822;6.754;2023-03-31T00:06:49;10.26;99.99
65460;DHT22;52058;49.822;6.754;2023-03-31T00:09:19;10.21;99.99
65460;DHT22;52058;49.822;6.754;2023-03-31T00:11:46;10.27;99.99
65460;DHT22;52058;49.822;6.754;2023-03-31T00:14:14;10.30;99.99
65460;DHT22;52058;49.822;6.754;2023-03-31T00:16:42;10.34;99.99
65460;DHT22;52058;49.822;6.754;2023-03-31T00:19:10;10.36;99.99
65460;DHT22;52058;49.822;6.754;2023-03-31T00:21:42;10.37;99.99
65460;DHT22;52058;49.822;6.754;2023-03-31T00:24:11;10.36;99.99
65460;DHT22;52058;49.822;6.754;2023-03-31T00:26:38;10.39;99.99
65460;DHT22;52058;49.822;6.754;2023-03-31T00:29:05;10.43;99.99
65460;DHT22;52058;49.822;6.754;2023-03-31T00:31:33;10.40;99.99
65460;DHT22;52058;49.822;6.754;2023-03-31T00:34:00;10.41;99.99
65460;DHT22;52058;49.822;6.754;2023-03-31T00:36:27;10.41;99.99
65460;DHT22;52058;49.822;6.754;2023-03-31T00:38:54;10.39;99.99
65460;DHT22;52058;49.822;6.754;2023-03-31T00:41:25;10.33;99.99
65460;DHT22;52058;49.822;6.754;2023-03-31T00:44:06;10.37;99.99
65460;DHT22;52058;49.822;6.754;2023-03-31T00:46:36;10.34;99.99
65460;DHT22;52058;49.822;6.754;2023-03-31T00:49:12;10.36;99.99
65460;DHT22;52058;49.822;6.754;2023-03-31T00:51:41;10.32;99.99
65460;DHT22;52058;49.822;6.754;2023-03-31T00:54:08;10.34;99.99
65460;DHT22;52058;49.822;6.754;2023-03-31T00:56:41;10.30;99.99
65460;DHT22;52058;49.822;6.754;2023-03-31T00:59:10;10.30;99.99
65460;DHT22;52058;49.822;6.754;2023-03-31T01:01:38;10.36;99.99
65460;DHT22;52058;49.822;6.754;2023-03-31T01:04:07;10.36;99.99
65460;DHT22;52058;49.822;6.754;2023-03-31T01:06:37;10.36;99.99
65460;DHT22;52058;49.822;6.754;2023-03-31T01:09:11;10.34;99.99
65460;DHT22;52058;49.822;6.754;2023-03-31T01:11:40;10.36;99.99
65460;DHT22;52058;49.822;6.754;2023-03-31T01:14:07;10.34;99.99
65460;DHT22;52058;49.822;6.754;2023-03-31T01:16:34;10.36;99.99
65460;DHT22;52058;49.822;6.754;2023-03-31T01:19:05;10.33;99.99
65460;DHT22;52058;49.822;6.754;2023-03-31T01:22:03;10.34;99.99
65460;DHT22;52058;49.822;6.754;2023-03-31T01:25:04;10.33;99.99
65460;DHT22;52058;49.822;6.754;2023-03-31T01:27:48;10.34;99.99
65460;DHT22;52058;49.822;6.754;2023-03-31T01:30:40;10.37;99.99
65460;DHT22;52058;49.822;6.754;2023-03-31T01:36:34;10.48;99.99
65460;DHT22;52058;49.822;6.754;2023-03-31T01:42:13;10.51;99.99
65460;DHT22;52058;49.822;6.754;2023-03-31T01:44:44;10.51;99.99
65460;DHT22;52058;49.822;6.754;2023-03-31T01:47:15;10.57;99.41
65460;DHT22;52058;49.822;6.754;2023-03-31T01:49:53;10.57;98.84
65460;DHT22;52058;49.822;6.754;2023-03-31T01:52:24;10.57;98.59
65460;DHT22;52058;49.822;6.754;2023-03-31T01:54:54;10.60;98.24
65460;DHT22;52058;49.822;6.754;2023-03-31T01:57:31;10.58;97.78
65460;DHT22;52058;49.822;6.754;2023-03-31T02:00:03;10.57;97.97
65460;DHT22;52058;49.822;6.754;2023-03-31T02:02:35;10.56;97.65
65460;DHT22;52058;49.822;6.754;2023-03-31T02:05:06;10.57;97.75
65460;DHT22;52058;49.822;6.754;2023-03-31T02:07:38;10.58;97.10
65460;DHT22;52058;49.822;6.754;2023-03-31T02:10:08;10.56;97.90
65460;DHT22;52058;49.822;6.754;2023-03-31T02:12:40;10.53;97.77
65460;DHT22;52058;49.822;6.754;2023-03-31T02:15:10;10.53;97.85
65460;DHT22;52058;49.822;6.754;2023-03-31T02:17:42;10.54;97.34
65460;DHT22;52058;49.822;6.754;2023-03-31T02:20:12;10.56;96.93
65460;DHT22;52058;49.822;6.754;2023-03-31T02:22:44;10.50;96.86
65460;DHT22;52058;49.822;6.754;2023-03-31T02:25:14;10.50;97.14
65460;DHT22;52058;49.822;6.754;2023-03-31T02:27:46;10.47;96.70
65460;DHT22;52058;49.822;6.754;2023-03-31T02:30:15;10.48;96.27
65460;DHT22;52058;49.822;6.754;2023-03-31T02:32:43;10.47;97.08
65460;DHT22;52058;49.822;6.754;2023-03-31T02:35:13;10.48;96.59
65460;DHT22;52058;49.822;6.754;2023-03-31T02:37:41;10.46;96.94
65460;DHT22;52058;49.822;6.754;2023-03-31T02:40:11;10.43;97.00
65460;DHT22;52058;49.822;6.754;2023-03-31T02:42:41;10.43;97.41
65460;DHT22;52058;49.822;6.754;2023-03-31T02:45:37;10.43;96.80
65460;DHT22;52058;49.822;6.754;2023-03-31T02:48:04;10.41;96.96
65460;DHT22;52058;49.822;6.754;2023-03-31T02:50:43;10.40;97.05
65460;DHT22;52058;49.822;6.754;2023-03-31T02:53:19;10.37;97.32
65460;DHT22;52058;49.822;6.754;2023-03-31T02:55:58;10.37;96.51
65460;DHT22;52058;49.822;6.754;2023-03-31T02:58:56;10.36;97.35
65460;DHT22;52058;49.822;6.754;2023-03-31T03:01:42;10.32;97.10
65460;DHT22;52058;49.822;6.754;2023-03-31T03:04:29;10.30;97.08
65460;DHT22;52058;49.822;6.754;2023-03-31T03:07:04;10.30;97.45
65460;DHT22;52058;49.822;6.754;2023-03-31T03:09:43;10.26;97.94
65460;DHT22;52058;49.822;6.754;2023-03-31T03:12:15;10.26;97.30
65460;DHT22;52058;49.822;6.754;2023-03-31T03:14:47;10.21;97.46
65460;DHT22;52058;49.822;6.754;2023-03-31T03:17:21;10.19;97.67
65460;DHT22;52058;49.822;6.754;2023-03-31T03:19:53;10.17;97.66
65460;DHT22;52058;49.822;6.754;2023-03-31T03:22:20;10.09;97.92
65460;DHT22;52058;49.822;6.754;2023-03-31T03:24:47;10.06;98.20
65460;DHT22;52058;49.822;6.754;2023-03-31T03:27:13;10.09;98.33
65460;DHT22;52058;49.822;6.754;2023-03-31T03:29:40;10.03;99.46
65460;DHT22;52058;49.822;6.754;2023-03-31T03:32:07;10.03;99.64
65460;DHT22;52058;49.822;6.754;2023-03-31T03:34:36;10.06;99.37
65460;DHT22;52058;49.822;6.754;2023-03-31T03:37:03;10.06;99.91
65460;DHT22;52058;49.822;6.754;2023-03-31T03:39:30;10.09;99.71
65460;DHT22;52058;49.822;6.754;2023-03-31T03:41:57;10.06;99.99
65460;DHT22;52058;49.822;6.754;2023-03-31T03:44:24;10.10;99.99
65460;DHT22;52058;49.822;6.754;2023-03-31T03:46:50;10.09;99.99
65460;DHT22;52058;49.822;6.754;2023-03-31T03:49:17;10.10;99.99
65460;DHT22;52058;49.822;6.754;2023-03-31T03:51:46;10.10;99.99
65460;DHT22;52058;49.822;6.754;2023-03-31T03:54:12;10.08;99.99
65460;DHT22;52058;49.822;6.754;2023-03-31T03:56:39;10.05;99.99
65460;DHT22;52058;49.822;6.754;2023-03-31T03:59:06;10.09;99.99
65460;DHT22;52058;49.822;6.754;2023-03-31T04:01:32;10.13;99.99
65460;DHT22;52058;49.822;6.754;2023-03-31T04:04:00;10.12;99.99
65460;DHT22;52058;49.822;6.754;2023-03-31T04:06:27;10.10;99.99
65460;DHT22;52058;49.822;6.754;2023-03-31T04:08:55;10.09;99.99
65460;DHT22;52058;49.822;6.754;2023-03-31T04:11:21;10.08;99.99
65460;DHT22;52058;49.822;6.754;2023-03-31T04:13:48;10.05;99.99
65460;DHT22;52058;49.822;6.754;2023-03-31T04:16:15;10.06;99.99
65460;DHT22;52058;49.822;6.754;2023-03-31T04:18:42;10.09;99.99
65460;DHT22;52058;49.822;6.754;2023-03-31T04:21:14;10.08;99.99
65460;DHT22;52058;49.822;6.754;2023-03-31T04:23:48;10.08;99.99
65460;DHT22;52058;49.822;6.754;2023-03-31T04:26:17;10.12;99.99
65460;DHT22;52058;49.822;6.754;2023-03-31T04:28:50;10.13;99.99
65460;DHT22;52058;49.822;6.754;2023-03-31T04:31:17;10.10;99.99
65460;DHT22;52058;49.822;6.754;2023-03-31T04:33:49;10.08;99.99
65460;DHT22;52058;49.822;6.754;2023-03-31T04:36:16;10.08;99.99
65460;DHT22;52058;49.822;6.754;2023-03-31T04:38:43;10.09;99.99
65460;DHT22;52058;49.822;6.754;2023-03-31T04:41:11;10.09;99.99
65460;DHT22;52058;49.822;6.754;2023-03-31T04:43:39;10.09;99.99
65460;DHT22;52058;49.822;6.754;2023-03-31T04:46:06;9.99;99.99
65460;DHT22;52058;49.822;6.754;2023-03-31T04:48:33;9.98;99.99
65460;DHT22;52058;49.822;6.754;2023-03-31T04:50:59;9.96;99.99
65460;DHT22;52058;49.822;6.754;2023-03-31T04:53:26;9.95;99.99
65460;DHT22;52058;49.822;6.754;2023-03-31T04:55:53;9.96;99.99
65460;DHT22;52058;49.822;6.754;2023-03-31T04:58:20;9.93;99.99
65460;DHT22;52058;49.822;6.754;2023-03-31T05:00:48;9.90;99.99
65460;DHT22;52058;49.822;6.754;2023-03-31T05:03:14;9.88;99.99
65460;DHT22;52058;49.822;6.754;2023-03-31T05:05:41;9.81;99.99
65460;DHT22;52058;49.822;6.754;2023-03-31T05:08:07;9.82;99.99
65460;DHT22;52058;49.822;6.754;2023-03-31T05:10:34;9.83;99.99
65460;DHT22;52058;49.822;6.754;2023-03-31T05:13:01;9.82;99.99
65460;DHT22;52058;49.822;6.754;2023-03-31T05:15:28;9.82;99.99
65460;DHT22;52058;49.822;6.754;2023-03-31T05:17:56;9.79;99.99
65460;DHT22;52058;49.822;6.754;2023-03-31T05:20:23;9.83;99.99
65460;DHT22;52058;49.822;6.754;2023-03-31T05:22:50;9.77;99.99
65460;DHT22;52058;49.822;6.754;2023-03-31T05:25:17;9.71;99.99
65460;DHT22;52058;49.822;6.754;2023-03-31T05:27:44;9.67;99.99
65460;DHT22;52058;49.822;6.754;2023-03-31T05:30:12;9.74;99.99
65460;DHT22;52058;49.822;6.754;2023-03-31T05:32:38;9.61;99.99
65460;DHT22;52058;49.822;6.754;2023-03-31T05:35:07;9.57;99.99
65460;DHT22;52058;49.822;6.754;2023-03-31T05:37:34;9.61;99.99
65460;DHT22;52058;49.822;6.754;2023-03-31T05:40:00;9.63;99.99
65460;DHT22;52058;49.822;6.754;2023-03-31T05:42:29;9.67;99.99
65460;DHT22;52058;49.822;6.754;2023-03-31T05:44:56;9.63;99.99
65460;DHT22;52058;49.822;6.754;2023-03-31T05:47:22;9.65;99.99
65460;DHT22;52058;49.822;6.754;2023-03-31T05:49:49;9.69;99.99
65460;DHT22;52058;49.822;6.754;2023-03-31T05:52:17;9.67;99.99
65460;DHT22;52058;49.822;6.754;2023-03-31T05:54:44;9.65;99.99
65460;DHT22;52058;49.822;6.754;2023-03-31T05:57:10;9.65;99.99
65460;DHT22;52058;49.822;6.754;2023-03-31T05:59:37;9.69;99.99
65460;DHT22;52058;49.822;6.754;2023-03-31T06:02:05;9.75;99.99
65460;DHT22;52058;49.822;6.754;2023-03-31T06:04:31;9.69;99.99
65460;DHT22;52058;49.822;6.754;2023-03-31T06:06:58;9.69;99.99
65460;DHT22;52058;49.822;6.754;2023-03-31T06:09:26;9.68;99.99
65460;DHT22;52058;49.822;6.754;2023-03-31T06:11:53;9.71;99.99
65460;DHT22;52058;49.822;6.754;2023-03-31T06:14:20;9.74;99.99
65460;DHT22;52058;49.822;6.754;2023-03-31T06:16:46;9.72;99.99
65460;DHT22;52058;49.822;6.754;2023-03-31T06:19:13;9.75;99.99
65460;DHT22;52058;49.822;6.754;2023-03-31T06:21:40;9.81;99.99
65460;DHT22;52058;49.822;6.754;2023-03-31T06:24:07;9.81;99.99
65460;DHT22;52058;49.822;6.754;2023-03-31T06:26:35;9.82;99.99
65460;DHT22;52058;49.822;6.754;2023-03-31T06:29:02;9.82;99.99
65460;DHT22;52058;49.822;6.754;2023-03-31T06:31:29;9.85;99.99
65460;DHT22;52058;49.822;6.754;2023-03-31T06:33:55;9.95;99.99
65460;DHT22;52058;49.822;6.754;2023-03-31T06:36:22;10.00;99.99
65460;DHT22;52058;49.822;6.754;2023-03-31T06:38:49;10.14;99.99
65460;DHT22;52058;49.822;6.754;2023-03-31T06:41:17;10.24;99.99
65460;DHT22;52058;49.822;6.754;2023-03-31T06:43:46;10.34;99.99
65460;DHT22;52058;49.822;6.754;2023-03-31T06:46:13;10.41;99.99
65460;DHT22;52058;49.822;6.754;2023-03-31T06:48:39;10.44;99.99
65460;DHT22;52058;49.822;6.754;2023-03-31T06:51:08;10.44;99.99
65460;DHT22;52058;49.822;6.754;2023-03-31T06:53:35;10.53;99.99
65460;DHT22;52058;49.822;6.754;2023-03-31T06:56:02;10.64;99.99
65460;DHT22;52058;49.822;6.754;2023-03-31T06:58:29;10.58;99.99
65460;DHT22;52058;49.822;6.754;2023-03-31T07:00:57;10.64;99.99
65460;DHT22;52058;49.822;6.754;2023-03-31T07:03:23;10.60;99.99
65460;DHT22;52058;49.822;6.754;2023-03-31T07:05:51;10.63;99.99
65460;DHT22;52058;49.822;6.754;2023-03-31T07:08:18;10.63;99.99
65460;DHT22;52058;49.822;6.754;2023-03-31T07:10:46;10.65;99.99
65460;DHT22;52058;49.822;6.754;2023-03-31T07:13:14;10.63;99.99
65460;DHT22;52058;49.822;6.754;2023-03-31T07:15:41;10.63;99.99
65460;DHT22;52058;49.822;6.754;2023-03-31T07:18:09;10.63;99.86
65460;DHT22;52058;49.822;6.754;2023-03-31T07:20:37;10.60;99.99
65460;DHT22;52058;49.822;6.754;2023-03-31T07:23:04;10.56;99.99
65460;DHT22;52058;49.822;6.754;2023-03-31T07:25:32;10.51;99.99
65460;DHT22;52058;49.822;6.754;2023-03-31T07:27:59;10.53;99.99
65460;DHT22;52058;49.822;6.754;2023-03-31T07:30:26;10.63;99.99
65460;DHT22;52058;49.822;6.754;2023-03-31T07:32:53;10.71;99.99
65460;DHT22;52058;49.822;6.754;2023-03-31T07:35:21;10.77;99.99
65460;DHT22;52058;49.822;6.754;2023-03-31T07:37:49;10.92;99.99
65460;DHT22;52058;49.822;6.754;2023-03-31T07:40:18;10.97;99.99
65460;DHT22;52058;49.822;6.754;2023-03-31T07:42:46;10.99;99.88
65460;DHT22;52058;49.822;6.754;2023-03-31T07:45:14;11.04;99.99
65460;DHT22;52058;49.822;6.754;2023-03-31T07:47:41;10.99;99.99
65460;DHT22;52058;49.822;6.754;2023-03-31T07:50:09;11.09;99.54
65460;DHT22;52058;49.822;6.754;2023-03-31T07:52:37;11.12;99.06
65460;DHT22;52058;49.822;6.754;2023-03-31T07:55:05;11.23;99.20
65460;DHT22;52058;49.822;6.754;2023-03-31T07:57:32;11.42;98.69
65460;DHT22;52058;49.822;6.754;2023-03-31T07:59:58;11.76;98.71
65460;DHT22;52058;49.822;6.754;2023-03-31T08:02:26;11.97;98.33
65460;DHT22;52058;49.822;6.754;2023-03-31T08:04:53;12.07;96.69
65460;DHT22;52058;49.822;6.754;2023-03-31T08:07:19;12.29;97.15
65460;DHT22;52058;49.822;6.754;2023-03-31T08:09:47;12.41;94.90
65460;DHT22;52058;49.822;6.754;2023-03-31T08:12:14;12.44;93.94
65460;DHT22;52058;49.822;6.754;2023-03-31T08:14:41;12.56;93.89
65460;DHT22;52058;49.822;6.754;2023-03-31T08:17:07;12.62;93.17
65460;DHT22;52058;49.822;6.754;2023-03-31T08:19:34;12.73;92.33
65460;DHT22;52058;49.822;6.754;2023-03-31T08:22:01;12.83;91.80
65460;DHT22;52058;49.822;6.754;2023-03-31T08:24:28;12.86;91.73
65460;DHT22;52058;49.822;6.754;2023-03-31T08:26:55;12.84;91.93
65460;DHT22;52058;49.822;6.754;2023-03-31T08:29:22;12.77;91.19
65460;DHT22;52058;49.822;6.754;2023-03-31T08:31:49;12.90;90.45
65460;DHT22;52058;49.822;6.754;2023-03-31T08:34:15;13.04;90.23
65460;DHT22;52058;49.822;6.754;2023-03-31T08:36:42;13.07;89.75
65460;DHT22;52058;49.822;6.754;2023-03-31T08:39:09;12.89;89.39
65460;DHT22;52058;49.822;6.754;2023-03-31T08:41:46;12.67;91.57
65460;DHT22;52058;49.822;6.754;2023-03-31T08:44:20;12.22;93.62
65460;DHT22;52058;49.822;6.754;2023-03-31T08:46:50;11.56;94.64
65460;DHT22;52058;49.822;6.754;2023-03-31T08:49:19;10.72;95.99
65460;DHT22;52058;49.822;6.754;2023-03-31T08:51:48;9.82;96.81
65460;DHT22;52058;49.822;6.754;2023-03-31T08:54:18;9.52;97.29
65460;DHT22;52058;49.822;6.754;2023-03-31T08:56:47;9.09;97.41
65460;DHT22;52058;49.822;6.754;2023-03-31T08:59:21;9.17;97.60
65460;DHT22;52058;49.822;6.754;2023-03-31T09:01:56;9.21;98.57
65460;DHT22;52058;49.822;6.754;2023-03-31T09:04:42;9.67;99.99
65460;DHT22;52058;49.822;6.754;2023-03-31T09:07:14;9.95;99.99
65460;DHT22;52058;49.822;6.754;2023-03-31T09:09:50;10.24;99.99
65460;DHT22;52058;49.822;6.754;2023-03-31T09:12:25;10.63;99.26
65460;DHT22;52058;49.822;6.754;2023-03-31T09:14:59;10.81;98.90
65460;DHT22;52058;49.822;6.754;2023-03-31T09:17:28;11.04;98.59
65460;DHT22;52058;49.822;6.754;2023-03-31T09:19:57;11.29;98.63
65460;DHT22;52058;49.822;6.754;2023-03-31T09:22:29;11.35;98.45
65460;DHT22;52058;49.822;6.754;2023-03-31T09:24:59;11.46;96.16
65460;DHT22;52058;49.822;6.754;2023-03-31T09:27:27;11.57;94.99
65460;DHT22;52058;49.822;6.754;2023-03-31T09:30:00;11.66;94.65
65460;DHT22;52058;49.822;6.754;2023-03-31T09:32:29;11.84;96.69
65460;DHT22;52058;49.822;6.754;2023-03-31T09:34:59;12.02;95.76
65460;DHT22;52058;49.822;6.754;2023-03-31T09:37:30;12.01;92.84
65460;DHT22;52058;49.822;6.754;2023-03-31T09:39:59;12.24;93.14
65460;DHT22;52058;49.822;6.754;2023-03-31T09:42:26;12.45;93.02
65460;DHT22;52058;49.822;6.754;2023-03-31T09:44:53;12.57;91.13
65460;DHT22;52058;49.822;6.754;2023-03-31T09:47:28;12.76;91.31
65460;DHT22;52058;49.822;6.754;2023-03-31T09:49:57;12.76;92.30
65460;DHT22;52058;49.822;6.754;2023-03-31T09:52:27;12.63;89.92
65460;DHT22;52058;49.822;6.754;2023-03-31T09:54:57;12.65;90.32
65460;DHT22;52058;49.822;6.754;2023-03-31T09:57:26;12.87;90.42
65460;DHT22;52058;49.822;6.754;2023-03-31T10:00:01;12.89;87.20
65460;DHT22;52058;49.822;6.754;2023-03-31T10:02:35;13.31;88.12
65460;DHT22;52058;49.822;6.754;2023-03-31T10:05:06;13.35;85.64
65460;DHT22;52058;49.822;6.754;2023-03-31T10:07:33;13.58;86.51
65460;DHT22;52058;49.822;6.754;2023-03-31T10:10:00;13.68;84.91
65460;DHT22;52058;49.822;6.754;2023-03-31T10:12:28;13.63;83.94
65460;DHT22;52058;49.822;6.754;2023-03-31T10:15:13;13.81;84.92
65460;DHT22;52058;49.822;6.754;2023-03-31T10:17:44;13.86;84.18
65460;DHT22;52058;49.822;6.754;2023-03-31T10:20:20;13.73;84.75
65460;DHT22;52058;49.822;6.754;2023-03-31T10:22:46;13.66;85.27
65460;DHT22;52058;49.822;6.754;2023-03-31T10:25:16;13.89;85.18
65460;DHT22;52058;49.822;6.754;2023-03-31T10:27:46;13.87;84.78
65460;DHT22;52058;49.822;6.754;2023-03-31T10:30:17;13.55;83.42
65460;DHT22;52058;49.822;6.754;2023-03-31T10:32:47;13.68;84.09
65460;DHT22;52058;49.822;6.754;2023-03-31T10:35:21;13.72;84.55
65460;DHT22;52058;49.822;6.754;2023-03-31T10:37:53;13.85;83.92
65460;DHT22;52058;49.822;6.754;2023-03-31T10:40:23;13.87;82.29
65460;DHT22;52058;49.822;6.754;2023-03-31T10:42:59;13.90;82.89
65460;DHT22;52058;49.822;6.754;2023-03-31T10:45:28;13.89;82.39
65460;DHT22;52058;49.822;6.754;2023-03-31T10:47:59;13.96;82.66
65460;DHT22;52058;49.822;6.754;2023-03-31T10:50:27;13.72;83.33
65460;DHT22;52058;49.822;6.754;2023-03-31T10:53:01;14.10;83.23
65460;DHT22;52058;49.822;6.754;2023-03-31T10:55:33;14.20;81.87
65460;DHT22;52058;49.822;6.754;2023-03-31T10:58:01;14.45;81.71
65460;DHT22;52058;49.822;6.754;2023-03-31T11:00:31;14.78;80.53
65460;DHT22;52058;49.822;6.754;2023-03-31T11:03:21;14.88;77.29
65460;DHT22;52058;49.822;6.754;2023-03-31T11:05:55;15.16;78.15
65460;DHT22;52058;49.822;6.754;2023-03-31T11:08:36;14.87;78.08
65460;DHT22;52058;49.822;6.754;2023-03-31T11:11:25;14.13;86.64
65460;DHT22;52058;49.822;6.754;2023-03-31T11:13:56;13.52;87.39
65460;DHT22;52058;49.822;6.754;2023-03-31T11:16:32;13.13;88.98
65460;DHT22;52058;49.822;6.754;2023-03-31T11:19:12;12.92;90.71
65460;DHT22;52058;49.822;6.754;2023-03-31T11:21:52;12.02;97.80
65460;DHT22;52058;49.822;6.754;2023-03-31T11:24:32;11.99;98.89
65460;DHT22;52058;49.822;6.754;2023-03-31T11:27:13;12.21;97.53
65460;DHT22;52058;49.822;6.754;2023-03-31T11:29:50;12.52;93.02
65460;DHT22;52058;49.822;6.754;2023-03-31T11:32:31;12.72;93.07
65460;DHT22;52058;49.822;6.754;2023-03-31T11:35:17;12.82;90.43
65460;DHT22;52058;49.822;6.754;2023-03-31T11:37:54;12.83;90.98
65460;DHT22;52058;49.822;6.754;2023-03-31T11:40:38;13.55;91.92
65460;DHT22;52058;49.822;6.754;2023-03-31T11:43:12;13.51;84.48
65460;DHT22;52058;49.822;6.754;2023-03-31T11:45:46;13.61;83.86
65460;DHT22;52058;49.822;6.754;2023-03-31T11:48:17;13.86;84.66
65460;DHT22;52058;49.822;6.754;2023-03-31T11:50:49;13.86;86.14
65460;DHT22;52058;49.822;6.754;2023-03-31T11:53:18;13.96;85.06
65460;DHT22;52058;49.822;6.754;2023-03-31T11:55:49;13.86;81.47
65460;DHT22;52058;49.822;6.754;2023-03-31T11:58:20;13.61;80.30
65460;DHT22;52058;49.822;6.754;2023-03-31T12:00:51;13.25;82.88
65460;DHT22;52058;49.822;6.754;2023-03-31T12:03:20;13.13;89.52
65460;DHT22;52058;49.822;6.754;2023-03-31T12:05:51;13.41;87.17
65460;DHT22;52058;49.822;6.754;2023-03-31T12:08:25;13.89;83.56
65460;DHT22;52058;49.822;6.754;2023-03-31T12:10:59;14.17;81.49
65460;DHT22;52058;49.822;6.754;2023-03-31T12:13:37;14.20;82.51
65460;DHT22;52058;49.822;6.754;2023-03-31T12:16:10;13.98;82.47
65460;DHT22;52058;49.822;6.754;2023-03-31T12:18:42;13.61;83.45
65460;DHT22;52058;49.822;6.754;2023-03-31T12:21:12;12.97;86.41
65460;DHT22;52058;49.822;6.754;2023-03-31T12:23:42;13.25;86.63
65460;DHT22;52058;49.822;6.754;2023-03-31T12:26:16;13.87;85.96
65460;DHT22;52058;49.822;6.754;2023-03-31T12:28:49;14.02;83.74
65460;DHT22;52058;49.822;6.754;2023-03-31T12:31:22;14.16;81.07
65460;DHT22;52058;49.822;6.754;2023-03-31T12:33:53;14.13;78.75
65460;DHT22;52058;49.822;6.754;2023-03-31T12:36:32;14.68;78.31
65460;DHT22;52058;49.822;6.754;2023-03-31T12:39:12;15.15;78.48
65460;DHT22;52058;49.822;6.754;2023-03-31T12:41:46;15.26;77.34
65460;DHT22;52058;49.822;6.754;2023-03-31T12:44:33;15.08;76.75
65460;DHT22;52058;49.822;6.754;2023-03-31T12:47:09;15.23;75.73
65460;DHT22;52058;49.822;6.754;2023-03-31T12:49:50;15.39;74.77
65460;DHT22;52058;49.822;6.754;2023-03-31T12:52:22;15.86;74.39
65460;DHT22;52058;49.822;6.754;2023-03-31T12:55:16;15.73;72.40
65460;DHT22;52058;49.822;6.754;2023-03-31T12:57:46;16.15;72.20
65460;DHT22;52058;49.822;6.754;2023-03-31T13:00:22;15.94;71.14
65460;DHT22;52058;49.822;6.754;2023-03-31T13:02:49;15.80;72.55
65460;DHT22;52058;49.822;6.754;2023-03-31T13:05:44;15.49;74.72
65460;DHT22;52058;49.822;6.754;2023-03-31T13:11:14;15.46;74.93
65460;DHT22;52058;49.822;6.754;2023-03-31T13:13:44;15.28;74.10
65460;DHT22;52058;49.822;6.754;2023-03-31T13:16:18;14.93;74.51
65460;DHT22;52058;49.822;6.754;2023-03-31T13:18:50;14.75;76.39
65460;DHT22;52058;49.822;6.754;2023-03-31T13:21:18;12.34;99.99
65460;DHT22;52058;49.822;6.754;2023-03-31T13:23:45;14.50;89.49
65460;DHT22;52058;49.822;6.754;2023-03-31T13:26:37;15.44;78.74
65460;DHT22;52058;49.822;6.754;2023-03-31T13:29:20;15.96;76.30
65460;DHT22;52058;49.822;6.754;2023-03-31T13:32:18;15.54;74.71
65460;DHT22;52058;49.822;6.754;2023-03-31T13:34:49;15.13;75.03
65460;DHT22;52058;49.822;6.754;2023-03-31T13:37:35;14.72;75.23
65460;DHT22;52058;49.822;6.754;2023-03-31T13:40:31;14.78;73.40
65460;DHT22;52058;49.822;6.754;2023-03-31T13:43:19;15.64;71.62
65460;DHT22;52058;49.822;6.754;2023-03-31T13:45:58;16.08;69.61
65460;DHT22;52058;49.822;6.754;2023-03-31T13:48:35;16.97;67.34
65460;DHT22;52058;49.822;6.754;2023-03-31T13:51:31;18.04;66.15
65460;DHT22;52058;49.822;6.754;2023-03-31T13:54:22;18.34;64.69
65460;DHT22;52058;49.822;6.754;2023-03-31T13:57:16;17.71;66.21
65460;DHT22;52058;49.822;6.754;2023-03-31T14:00:13;16.09;70.69
65460;DHT22;52058;49.822;6.754;2023-03-31T14:02:50;15.76;71.69
65460;DHT22;52058;49.822;6.754;2023-03-31T14:05:27;15.13;72.33
65460;DHT22;52058;49.822;6.754;2023-03-31T14:07:55;15.08;73.48
65460;DHT22;52058;49.822;6.754;2023-03-31T14:10:26;14.71;74.32
65460;DHT22;52058;49.822;6.754;2023-03-31T14:13:07;14.61;74.97
65460;DHT22;52058;49.822;6.754;2023-03-31T14:15:39;14.78;74.75
65460;DHT22;52058;49.822;6.754;2023-03-31T14:18:06;14.96;75.33
65460;DHT22;52058;49.822;6.754;2023-03-31T14:20:39;14.84;77.15
65460;DHT22;52058;49.822;6.754;2023-03-31T14:23:19;14.42;76.55
65460;DHT22;52058;49.822;6.754;2023-03-31T14:25:52;14.20;77.40
65460;DHT22;52058;49.822;6.754;2023-03-31T14:28:48;14.34;78.12
65460;DHT22;52058;49.822;6.754;2023-03-31T14:31:23;14.42;77.42
65460;DHT22;52058;49.822;6.754;2023-03-31T14:34:32;14.44;77.39
65460;DHT22;52058;49.822;6.754;2023-03-31T14:37:00;14.12;78.63
65460;DHT22;52058;49.822;6.754;2023-03-31T14:39:30;14.00;81.00
65460;DHT22;52058;49.822;6.754;2023-03-31T14:42:00;13.73;81.77
65460;DHT22;52058;49.822;6.754;2023-03-31T14:44:28;13.62;83.32
65460;DHT22;52058;49.822;6.754;2023-03-31T14:46:56;13.48;82.80
65460;DHT22;52058;49.822;6.754;2023-03-31T14:49:26;13.47;83.17
65460;DHT22;52058;49.822;6.754;2023-03-31T14:51:54;13.68;83.15
65460;DHT22;52058;49.822;6.754;2023-03-31T14:54:33;13.75;78.47
65460;DHT22;52058;49.822;6.754;2023-03-31T14:57:02;14.30;77.50
65460;DHT22;52058;49.822;6.754;2023-03-31T14:59:31;14.74;77.27
65460;DHT22;52058;49.822;6.754;2023-03-31T15:02:02;14.67;73.65
65460;DHT22;52058;49.822;6.754;2023-03-31T15:04:36;15.09;72.16
65460;DHT22;52058;49.822;6.754;2023-03-31T15:07:09;14.88;72.59
65460;DHT22;52058;49.822;6.754;2023-03-31T15:09:36;15.56;72.09
65460;DHT22;52058;49.822;6.754;2023-03-31T15:12:06;15.66;70.78
65460;DHT22;52058;49.822;6.754;2023-03-31T15:14:37;15.64;70.81
65460;DHT22;52058;49.822;6.754;2023-03-31T15:17:16;15.53;70.30
65460;DHT22;52058;49.822;6.754;2023-03-31T15:19:43;15.28;70.06
65460;DHT22;52058;49.822;6.754;2023-03-31T15:22:11;15.36;71.35
65460;DHT22;52058;49.822;6.754;2023-03-31T15:24:40;15.13;70.97
65460;DHT22;52058;49.822;6.754;2023-03-31T15:27:12;15.06;72.05
65460;DHT22;52058;49.822;6.754;2023-03-31T15:29:41;14.95;72.70
65460;DHT22;52058;49.822;6.754;2023-03-31T15:32:14;14.61;73.52
65460;DHT22;52058;49.822;6.754;2023-03-31T15:34:41;14.47;75.63
65460;DHT22;52058;49.822;6.754;2023-03-31T15:37:11;14.42;74.99
65460;DHT22;52058;49.822;6.754;2023-03-31T15:39:43;14.17;75.18
65460;DHT22;52058;49.822;6.754;2023-03-31T15:42:10;14.19;76.60
65460;DHT22;52058;49.822;6.754;2023-03-31T15:44:38;14.20;76.51
65460;DHT22;52058;49.822;6.754;2023-03-31T15:47:16;13.86;76.43
65460;DHT22;52058;49.822;6.754;2023-03-31T15:49:49;13.58;78.12
65460;DHT22;52058;49.822;6.754;2023-03-31T15:52:19;13.42;82.26
65460;DHT22;52058;49.822;6.754;2023-03-31T15:54:46;13.11;82.04
65460;DHT22;52058;49.822;6.754;2023-03-31T15:57:15;13.17;81.59
65460;DHT22;52058;49.822;6.754;2023-03-31T15:59:44;13.28;81.05
65460;DHT22;52058;49.822;6.754;2023-03-31T16:02:16;13.10;81.71
65460;DHT22;52058;49.822;6.754;2023-03-31T16:04:47;13.23;82.61
65460;DHT22;52058;49.822;6.754;2023-03-31T16:07:17;13.13;83.06
65460;DHT22;52058;49.822;6.754;2023-03-31T16:09:48;13.06;82.78